Delta, Kentucky
Current Conditions -  °F | °C
As of 1:56 PM on Friday 28 Nov 2014 (Local Time) from KEKQ Reporting Station
Clear Clear  
Wind Chill: 36°   Ceiling: Unl
Heat Index: 40°   Visibility: 10mi
Dew Point: 20°   Wind: 6mph
Humidity: 45%   Direction: 240°WSW
Pressure: 30.32"   Gusts: NA
Location:  36.8129°N, 84.8215°W
Report Text: KEKQ 281856Z AUTO 24005KT 10SM CLR 04/M07 A3032 RMK AO2 T00441066 SLP279
Loading
Personal Weather Stations






























Interactive Weather Map New forecast layout! Learn more

10-Day Weather Forecast

Advertisements
Track Severe Weather on mobile